createdAt,value
2017-08-13T00:02:11.986Z,99.90
2017-08-13T00:04:40.844Z,99.90
2017-08-13T00:07:08.919Z,99.90
2017-08-13T00:09:37.005Z,99.90
2017-08-13T00:12:05.067Z,99.90
2017-08-13T00:14:33.918Z,99.90
2017-08-13T00:17:02.012Z,99.90
2017-08-13T00:19:30.064Z,99.90
2017-08-13T00:21:58.130Z,99.90
2017-08-13T00:24:26.216Z,99.90
2017-08-13T00:26:54.290Z,99.90
2017-08-13T00:29:22.367Z,99.90
2017-08-13T00:31:50.424Z,99.90
2017-08-13T00:34:18.503Z,99.90
2017-08-13T00:36:46.575Z,99.90
2017-08-13T00:39:14.655Z,99.90
2017-08-13T00:41:42.712Z,99.90
2017-08-13T00:44:10.791Z,99.90
2017-08-13T00:46:38.852Z,99.90
2017-08-13T00:49:06.920Z,99.90
2017-08-13T00:51:34.992Z,99.90
2017-08-13T00:54:03.059Z,99.90
2017-08-13T00:56:31.158Z,99.90
2017-08-13T00:58:59.228Z,99.90
2017-08-13T01:01:27.303Z,99.90
2017-08-13T01:03:55.391Z,99.90
2017-08-13T01:06:24.238Z,99.90
2017-08-13T01:08:52.299Z,99.90
2017-08-13T01:11:20.387Z,99.90
2017-08-13T01:13:48.463Z,99.90
2017-08-13T01:16:16.546Z,99.90
2017-08-13T01:18:44.617Z,99.90
2017-08-13T01:21:12.687Z,99.90
2017-08-13T01:23:40.759Z,99.90
2017-08-13T01:26:08.829Z,99.90
2017-08-13T01:28:36.908Z,99.90
2017-08-13T01:31:05.006Z,99.90
2017-08-13T01:33:33.091Z,99.70
2017-08-13T01:36:01.161Z,99.90
2017-08-13T01:38:29.247Z,99.80
2017-08-13T01:40:57.311Z,99.70
2017-08-13T01:43:25.403Z,99.50
2017-08-13T01:45:53.473Z,99.90
2017-08-13T01:48:21.547Z,99.80
2017-08-13T01:50:49.624Z,99.60
2017-08-13T01:53:17.689Z,99.70
2017-08-13T01:55:45.767Z,99.50
2017-08-13T01:58:13.854Z,99.40
2017-08-13T02:00:41.908Z,99.30
2017-08-13T02:03:10.074Z,99.20
2017-08-13T02:05:38.151Z,99.50
2017-08-13T02:08:06.218Z,99.20
2017-08-13T02:10:34.337Z,99.40
2017-08-13T02:13:03.184Z,99.00
2017-08-13T02:15:31.231Z,99.00
2017-08-13T02:17:59.295Z,98.90
2017-08-13T02:20:27.368Z,98.80
2017-08-13T02:22:55.469Z,98.70
2017-08-13T02:25:24.305Z,98.90
2017-08-13T02:27:52.380Z,98.60
2017-08-13T02:30:20.458Z,98.40
2017-08-13T02:32:48.518Z,98.40
2017-08-13T02:35:16.600Z,98.40
2017-08-13T02:37:44.663Z,98.40
2017-08-13T02:40:12.727Z,98.20
2017-08-13T02:42:40.812Z,98.10
2017-08-13T02:45:08.872Z,97.80
2017-08-13T02:47:37.510Z,97.80
2017-08-13T02:50:05.575Z,97.90
2017-08-13T02:52:33.666Z,97.80
2017-08-13T02:55:02.494Z,98.00
2017-08-13T02:57:30.558Z,98.00
2017-08-13T02:59:58.646Z,97.90
2017-08-13T03:02:26.730Z,97.90
2017-08-13T03:04:54.803Z,97.80
2017-08-13T03:07:22.861Z,98.00
2017-08-13T03:09:50.958Z,98.20
2017-08-13T03:12:19.014Z,98.20
2017-08-13T03:14:47.087Z,98.10
2017-08-13T03:17:15.159Z,98.00
2017-08-13T03:19:43.221Z,97.90
2017-08-13T03:22:11.303Z,97.90
2017-08-13T03:24:39.370Z,97.90
2017-08-13T03:27:07.490Z,97.80
2017-08-13T03:29:35.510Z,97.80
2017-08-13T03:32:03.581Z,97.70
2017-08-13T03:34:31.661Z,97.80
2017-08-13T03:36:59.822Z,97.60
2017-08-13T03:39:27.902Z,97.60
2017-08-13T03:41:55.958Z,97.90
2017-08-13T03:44:24.015Z,98.30
2017-08-13T03:46:52.874Z,98.40
2017-08-13T03:49:20.959Z,98.40
2017-08-13T03:51:49.018Z,98.20
2017-08-13T03:54:17.095Z,98.20
2017-08-13T03:56:45.158Z,98.20
2017-08-13T03:59:13.247Z,98.20
2017-08-13T04:01:41.314Z,98.10
2017-08-13T04:04:09.379Z,98.20
2017-08-13T04:06:37.453Z,98.30
2017-08-13T04:09:05.528Z,98.20
2017-08-13T04:11:33.606Z,98.10
2017-08-13T04:14:01.655Z,97.90
2017-08-13T04:16:29.744Z,97.90
2017-08-13T04:18:57.799Z,97.80
2017-08-13T04:21:25.862Z,97.80
2017-08-13T04:23:53.946Z,97.70
2017-08-13T04:26:22.066Z,97.60
2017-08-13T04:28:50.911Z,97.50
2017-08-13T04:31:18.975Z,97.50
2017-08-13T04:33:47.075Z,97.40
2017-08-13T04:36:15.132Z,97.50
2017-08-13T04:38:43.183Z,97.50
2017-08-13T04:41:11.254Z,97.30
2017-08-13T04:43:39.328Z,97.00
2017-08-13T04:46:07.410Z,97.00
2017-08-13T04:48:35.467Z,97.40
2017-08-13T04:51:03.534Z,97.40
2017-08-13T04:53:31.605Z,97.40
2017-08-13T04:55:59.702Z,97.30
2017-08-13T04:58:27.770Z,97.10
2017-08-13T05:00:55.818Z,97.00
2017-08-13T05:03:23.904Z,96.90
2017-08-13T05:05:51.976Z,97.00
2017-08-13T05:08:20.036Z,97.10
2017-08-13T05:10:48.110Z,97.10
2017-08-13T05:13:16.195Z,97.00
2017-08-13T05:15:45.038Z,96.80
2017-08-13T05:18:13.101Z,96.70
2017-08-13T05:20:41.175Z,96.70
2017-08-13T05:23:09.244Z,96.70
2017-08-13T05:25:37.328Z,96.40
2017-08-13T05:28:05.395Z,96.30
2017-08-13T05:30:33.459Z,96.30
2017-08-13T05:33:01.547Z,96.20
2017-08-13T05:35:29.606Z,96.20
2017-08-13T05:37:57.670Z,96.10
2017-08-13T05:40:25.749Z,95.60
2017-08-13T05:42:53.814Z,95.40
2017-08-13T05:45:21.903Z,94.90
2017-08-13T05:47:49.971Z,94.70
2017-08-13T05:50:18.045Z,94.70
2017-08-13T05:52:46.107Z,94.80
2017-08-13T05:55:14.192Z,94.70
2017-08-13T05:57:42.251Z,93.80
2017-08-13T06:00:10.344Z,93.70
2017-08-13T06:02:38.414Z,93.70
2017-08-13T06:05:06.504Z,93.50
2017-08-13T06:07:34.548Z,92.90
2017-08-13T06:10:02.627Z,93.00
2017-08-13T06:12:30.674Z,92.50
2017-08-13T06:14:58.750Z,92.30
2017-08-13T06:17:26.814Z,92.20
2017-08-13T06:19:54.890Z,92.30
2017-08-13T06:22:22.963Z,92.50
2017-08-13T06:24:51.027Z,92.60
2017-08-13T06:27:19.091Z,92.10
2017-08-13T06:29:47.175Z,91.90
2017-08-13T06:32:15.279Z,92.10
2017-08-13T06:34:43.336Z,91.50
2017-08-13T06:37:11.409Z,91.10
2017-08-13T06:39:39.506Z,91.10
2017-08-13T06:42:07.553Z,90.50
2017-08-13T06:44:35.615Z,90.30
2017-08-13T06:47:03.684Z,90.00
2017-08-13T06:49:31.745Z,90.00
2017-08-13T06:51:59.807Z,90.20
2017-08-13T06:54:27.904Z,90.30
2017-08-13T06:56:56.045Z,90.90
2017-08-13T06:59:24.154Z,90.90
2017-08-13T07:01:52.226Z,90.80
2017-08-13T07:04:20.282Z,90.40
2017-08-13T07:06:48.372Z,90.30
2017-08-13T07:09:17.217Z,90.20
2017-08-13T07:11:45.282Z,90.20
2017-08-13T07:14:13.367Z,88.70
2017-08-13T07:16:41.438Z,89.70
2017-08-13T07:19:09.582Z,89.10
2017-08-13T07:21:38.736Z,87.80
2017-08-13T07:24:06.820Z,87.80
2017-08-13T07:26:35.635Z,86.20
2017-08-13T07:29:03.706Z,86.10
2017-08-13T07:31:31.778Z,88.10
2017-08-13T07:34:00.183Z,86.20
2017-08-13T07:36:28.227Z,85.30
2017-08-13T07:38:56.296Z,85.70
2017-08-13T07:41:25.120Z,81.80
2017-08-13T07:43:53.160Z,81.80
2017-08-13T07:46:21.222Z,81.50
2017-08-13T07:48:50.067Z,80.20
2017-08-13T07:51:18.130Z,80.00
2017-08-13T07:53:46.195Z,79.40
2017-08-13T07:56:14.283Z,79.70
2017-08-13T07:58:42.385Z,82.20
2017-08-13T08:01:11.205Z,81.70
2017-08-13T08:03:39.263Z,81.40
2017-08-13T08:06:07.363Z,79.70
2017-08-13T08:08:35.505Z,78.80
2017-08-13T08:11:03.567Z,78.10
2017-08-13T08:13:31.647Z,76.40
2017-08-13T08:15:59.726Z,78.50
2017-08-13T08:18:27.771Z,77.90
2017-08-13T08:20:55.877Z,77.20
2017-08-13T08:23:23.954Z,75.40
2017-08-13T08:25:52.003Z,78.60
2017-08-13T08:28:20.077Z,78.20
2017-08-13T08:30:48.155Z,79.00
2017-08-13T08:33:16.644Z,77.50
2017-08-13T08:35:44.766Z,76.00
2017-08-13T08:38:13.062Z,77.80
2017-08-13T08:40:41.879Z,78.70
2017-08-13T08:43:09.910Z,78.70
2017-08-13T08:45:37.979Z,78.80
2017-08-13T08:48:06.932Z,78.10
2017-08-13T08:50:35.012Z,77.80
2017-08-13T08:53:03.942Z,75.50
2017-08-13T08:55:32.009Z,75.50
2017-08-13T08:58:00.079Z,74.50
2017-08-13T09:00:28.143Z,73.10
2017-08-13T09:02:56.195Z,74.10
2017-08-13T09:05:25.036Z,71.70
2017-08-13T09:07:53.118Z,71.60
2017-08-13T09:10:21.173Z,71.20
2017-08-13T09:12:49.255Z,70.00
2017-08-13T09:15:17.320Z,69.40
2017-08-13T09:17:45.377Z,65.70
2017-08-13T09:20:13.450Z,65.30
2017-08-13T09:22:41.527Z,65.80
2017-08-13T09:25:09.602Z,66.90
2017-08-13T09:27:37.658Z,66.30
2017-08-13T09:30:06.084Z,64.70
2017-08-13T09:32:34.127Z,65.60
2017-08-13T09:35:02.194Z,63.20
2017-08-13T09:37:30.275Z,59.10
2017-08-13T09:39:58.347Z,58.80
2017-08-13T09:42:26.417Z,58.80
2017-08-13T09:44:54.471Z,59.90
2017-08-13T09:47:22.531Z,61.50
2017-08-13T09:49:50.612Z,62.20
2017-08-13T09:52:18.683Z,57.40
2017-08-13T09:54:46.744Z,50.60
2017-08-13T09:57:14.806Z,45.70
2017-08-13T09:59:42.884Z,41.40
2017-08-13T10:02:11.030Z,38.40
2017-08-13T10:04:39.078Z,35.60
2017-08-13T10:07:07.156Z,34.70
2017-08-13T10:09:35.226Z,33.60
2017-08-13T10:12:03.302Z,31.90
2017-08-13T10:14:31.392Z,31.80
2017-08-13T10:16:59.519Z,34.60
2017-08-13T10:19:27.591Z,37.40
2017-08-13T10:21:56.410Z,41.40
2017-08-13T10:24:24.494Z,41.30
2017-08-13T10:26:52.575Z,42.20
2017-08-13T10:29:20.673Z,39.40
2017-08-13T10:31:48.686Z,39.00
2017-08-13T10:34:16.777Z,36.70
2017-08-13T10:36:44.869Z,35.80
2017-08-13T10:39:12.899Z,37.70
2017-08-13T10:41:40.967Z,41.40
2017-08-13T10:44:09.054Z,43.30
2017-08-13T10:46:37.120Z,45.20
2017-08-13T10:49:05.211Z,42.90
2017-08-13T10:51:33.268Z,39.50
2017-08-13T10:54:01.323Z,38.00
2017-08-13T10:56:29.408Z,38.40
2017-08-13T10:58:57.473Z,38.50
2017-08-13T11:01:25.540Z,38.80
2017-08-13T11:03:53.609Z,41.80
2017-08-13T11:06:21.690Z,40.80
2017-08-13T11:08:49.760Z,38.20
2017-08-13T11:11:17.834Z,35.90
2017-08-13T11:13:45.883Z,34.40
2017-08-13T11:16:14.015Z,35.00
2017-08-13T11:18:42.850Z,36.00
2017-08-13T11:21:10.922Z,35.50
2017-08-13T11:23:38.970Z,35.90
2017-08-13T11:26:07.032Z,36.90
2017-08-13T11:28:35.098Z,37.30
2017-08-13T11:31:03.178Z,36.10
2017-08-13T11:33:31.272Z,35.10
2017-08-13T11:35:59.348Z,34.40
2017-08-13T11:38:27.415Z,34.10
2017-08-13T11:40:55.483Z,35.70
2017-08-13T11:43:23.551Z,34.70
2017-08-13T11:45:51.610Z,34.70
2017-08-13T11:48:19.693Z,35.30
2017-08-13T11:50:47.816Z,37.30
2017-08-13T11:53:16.690Z,37.60
2017-08-13T11:55:45.518Z,36.30
2017-08-13T11:58:13.559Z,36.30
2017-08-13T12:00:42.438Z,39.10
2017-08-13T12:03:10.483Z,39.00
2017-08-13T12:05:38.583Z,42.60
2017-08-13T12:08:06.754Z,41.30
2017-08-13T12:10:34.820Z,43.10
2017-08-13T12:13:02.903Z,44.00
2017-08-13T12:15:30.979Z,46.00
2017-08-13T12:17:59.052Z,45.00
2017-08-13T12:20:27.114Z,46.60
2017-08-13T12:22:55.173Z,46.50
2017-08-13T12:25:23.255Z,48.20
2017-08-13T12:27:51.328Z,49.30
2017-08-13T12:30:19.424Z,52.90
2017-08-13T12:32:47.524Z,55.00
2017-08-13T12:35:16.360Z,57.50
2017-08-13T12:37:44.454Z,57.40
2017-08-13T12:40:12.560Z,58.90
2017-08-13T12:42:40.617Z,60.40
2017-08-13T12:45:08.702Z,61.20
2017-08-13T12:47:37.547Z,61.50
2017-08-13T12:50:05.629Z,61.30
2017-08-13T12:52:33.721Z,61.40
2017-08-13T12:55:01.794Z,61.90
2017-08-13T12:57:30.010Z,62.10
2017-08-13T12:59:58.059Z,61.80
2017-08-13T13:02:26.140Z,61.60
2017-08-13T13:04:54.969Z,58.70
2017-08-13T13:07:23.061Z,58.60
2017-08-13T13:09:51.162Z,57.90
2017-08-13T13:12:19.237Z,57.30
2017-08-13T13:14:47.292Z,58.20
2017-08-13T13:17:15.379Z,56.60
2017-08-13T13:19:43.454Z,57.10
2017-08-13T13:22:11.578Z,55.80
2017-08-13T13:24:39.646Z,56.30
2017-08-13T13:27:07.987Z,57.00
2017-08-13T13:29:36.059Z,57.80
2017-08-13T13:32:04.127Z,57.80
2017-08-13T13:34:32.211Z,57.70
2017-08-13T13:37:00.334Z,58.30
2017-08-13T13:39:29.150Z,57.40
2017-08-13T13:41:57.229Z,57.40
2017-08-13T13:44:25.307Z,57.20
2017-08-13T13:46:53.421Z,57.90
2017-08-13T13:49:21.471Z,57.00
2017-08-13T13:51:49.555Z,57.00
2017-08-13T13:54:17.643Z,56.10
2017-08-13T13:56:45.700Z,55.10
2017-08-13T13:59:13.771Z,54.40
2017-08-13T14:01:41.837Z,54.70
2017-08-13T14:04:09.890Z,53.90
2017-08-13T14:06:37.959Z,52.90
2017-08-13T14:09:06.033Z,53.60
2017-08-13T14:11:34.081Z,54.30
2017-08-13T14:14:02.156Z,54.40
2017-08-13T14:16:30.228Z,54.30
2017-08-13T14:18:58.296Z,54.80
2017-08-13T14:21:26.362Z,53.40
2017-08-13T14:23:54.458Z,54.00
2017-08-13T14:26:22.525Z,54.40
2017-08-13T14:28:50.608Z,54.30
2017-08-13T14:31:18.675Z,53.80
2017-08-13T14:33:46.756Z,54.20
2017-08-13T14:36:14.817Z,54.40
2017-08-13T14:38:42.906Z,52.90
2017-08-13T14:41:11.741Z,53.70
2017-08-13T14:43:39.810Z,53.80
2017-08-13T14:46:07.879Z,54.40
2017-08-13T14:48:35.943Z,53.70
2017-08-13T14:51:04.000Z,54.70
2017-08-13T14:53:32.074Z,54.60
2017-08-13T14:56:00.132Z,55.40
2017-08-13T14:58:28.966Z,54.90
2017-08-13T15:00:57.040Z,54.90
2017-08-13T15:03:25.179Z,54.70
2017-08-13T15:05:53.223Z,55.30
2017-08-13T15:08:22.044Z,56.00
2017-08-13T15:10:50.133Z,56.00
2017-08-13T15:13:18.217Z,54.70
2017-08-13T15:15:46.270Z,55.50
2017-08-13T15:18:14.339Z,56.10
2017-08-13T15:20:42.401Z,55.90
2017-08-13T15:23:11.259Z,56.50
2017-08-13T15:25:39.300Z,56.40
2017-08-13T15:28:07.366Z,55.90
2017-08-13T15:30:35.446Z,56.80
2017-08-13T15:33:04.126Z,55.00
2017-08-13T15:35:32.196Z,55.60
2017-08-13T15:38:00.810Z,55.50
2017-08-13T15:40:28.935Z,56.10
2017-08-13T15:42:56.996Z,56.40
2017-08-13T15:45:25.070Z,56.70
2017-08-13T15:47:53.141Z,58.00
2017-08-13T15:50:21.210Z,59.20
2017-08-13T15:52:49.303Z,60.30
2017-08-13T15:55:17.371Z,62.00
2017-08-13T15:57:45.473Z,62.90
2017-08-13T16:00:13.539Z,63.40
2017-08-13T16:02:41.599Z,64.20
2017-08-13T16:05:09.686Z,64.00
2017-08-13T16:07:37.742Z,64.20
2017-08-13T16:10:05.824Z,64.90
2017-08-13T16:12:34.635Z,63.70
2017-08-13T16:15:02.723Z,63.70
2017-08-13T16:17:30.813Z,64.20
2017-08-13T16:19:58.863Z,64.80
2017-08-13T16:22:28.136Z,65.00
2017-08-13T16:24:56.951Z,66.00
2017-08-13T16:27:25.048Z,65.10
2017-08-13T16:29:53.119Z,65.40
2017-08-13T16:32:21.312Z,65.50
2017-08-13T16:34:50.172Z,66.50
2017-08-13T16:37:18.238Z,65.80
2017-08-13T16:39:46.287Z,65.70
2017-08-13T16:42:14.376Z,67.10
2017-08-13T16:44:42.433Z,67.50
2017-08-13T16:47:10.505Z,67.60
2017-08-13T16:49:38.573Z,68.90
2017-08-13T16:52:06.628Z,68.30
2017-08-13T16:54:34.917Z,68.10
2017-08-13T16:57:02.977Z,68.60
2017-08-13T16:59:31.047Z,68.80
2017-08-13T17:01:59.098Z,68.70
2017-08-13T17:04:27.925Z,68.80
2017-08-13T17:06:56.013Z,68.80
2017-08-13T17:09:24.104Z,69.10
2017-08-13T17:11:52.961Z,69.70
2017-08-13T17:14:21.088Z,69.70
2017-08-13T17:16:49.173Z,69.90
2017-08-13T17:19:17.252Z,69.90
2017-08-13T17:21:45.329Z,69.60
2017-08-13T17:24:13.420Z,69.40
2017-08-13T17:26:41.576Z,69.80
2017-08-13T17:29:09.631Z,69.60
2017-08-13T17:31:37.686Z,69.60
2017-08-13T17:34:05.742Z,69.50
2017-08-13T17:36:34.743Z,69.40
2017-08-13T17:39:03.544Z,69.50
2017-08-13T17:41:31.634Z,69.40
2017-08-13T17:43:59.687Z,69.50
2017-08-13T17:46:27.752Z,69.40
2017-08-13T17:48:55.844Z,68.70
2017-08-13T17:51:23.935Z,68.70
2017-08-13T17:53:52.011Z,69.60
2017-08-13T17:56:20.064Z,70.40
2017-08-13T17:58:48.145Z,69.70
2017-08-13T18:01:16.187Z,69.80
2017-08-13T18:03:44.258Z,70.10
2017-08-13T18:06:12.385Z,70.70
2017-08-13T18:08:41.251Z,71.10
2017-08-13T18:11:09.334Z,71.00
2017-08-13T18:13:37.446Z,71.80
2017-08-13T18:16:05.527Z,71.90
2017-08-13T18:18:33.598Z,72.40
2017-08-13T18:21:01.688Z,72.90
2017-08-13T18:23:29.740Z,72.40
2017-08-13T18:25:57.803Z,74.40
2017-08-13T18:28:25.886Z,75.10
2017-08-13T18:30:53.974Z,75.90
2017-08-13T18:33:22.033Z,76.50
2017-08-13T18:35:52.028Z,76.20
2017-08-13T18:38:21.220Z,76.60
2017-08-13T18:40:49.464Z,76.60
2017-08-13T18:43:17.533Z,76.80
2017-08-13T18:45:45.598Z,77.70
2017-08-13T18:48:13.672Z,77.40
2017-08-13T18:50:41.778Z,78.20
2017-08-13T18:53:09.832Z,78.70
2017-08-13T18:55:38.665Z,80.00
2017-08-13T18:58:06.719Z,80.00
2017-08-13T19:00:34.787Z,80.40
2017-08-13T19:03:02.966Z,80.50
2017-08-13T19:05:31.907Z,80.40
2017-08-13T19:08:00.006Z,81.00
2017-08-13T19:10:30.445Z,81.20
2017-08-13T19:12:58.491Z,82.20
2017-08-13T19:15:26.590Z,82.50
2017-08-13T19:17:54.666Z,83.20
2017-08-13T19:20:22.739Z,83.30
2017-08-13T19:22:50.792Z,83.50
2017-08-13T19:25:18.955Z,83.90
2017-08-13T19:27:47.020Z,84.10
2017-08-13T19:30:15.084Z,84.10
2017-08-13T19:32:43.147Z,84.80
2017-08-13T19:35:11.199Z,84.70
2017-08-13T19:37:39.279Z,85.10
2017-08-13T19:40:07.363Z,85.90
2017-08-13T19:42:35.431Z,86.00
2017-08-13T19:45:03.599Z,85.50
2017-08-13T19:47:31.648Z,85.80
2017-08-13T19:50:00.496Z,86.60
2017-08-13T19:52:28.584Z,86.60
2017-08-13T19:54:56.611Z,87.10
2017-08-13T19:57:24.696Z,87.30
2017-08-13T19:59:52.749Z,87.20
2017-08-13T20:02:20.841Z,87.50
2017-08-13T20:04:48.946Z,88.10
2017-08-13T20:07:17.058Z,88.10
2017-08-13T20:09:45.115Z,88.50
2017-08-13T20:12:13.186Z,88.60
2017-08-13T20:14:41.259Z,88.30
2017-08-13T20:17:09.454Z,87.90
2017-08-13T20:19:37.528Z,87.80
2017-08-13T20:22:05.616Z,87.90
2017-08-13T20:24:33.659Z,88.10
2017-08-13T20:27:01.737Z,88.50
2017-08-13T20:29:29.800Z,88.10
2017-08-13T20:31:57.906Z,88.10
2017-08-13T20:34:25.973Z,88.50
2017-08-13T20:36:54.089Z,88.80
2017-08-13T20:39:22.143Z,89.00
2017-08-13T20:41:50.974Z,89.10
2017-08-13T20:44:19.064Z,89.00
2017-08-13T20:46:47.143Z,89.30
2017-08-13T20:49:15.275Z,89.10
2017-08-13T20:51:44.090Z,89.40
2017-08-13T20:54:12.163Z,89.30
2017-08-13T20:56:40.268Z,89.30
2017-08-13T20:59:09.103Z,89.40
2017-08-13T21:01:37.182Z,89.30
2017-08-13T21:04:05.347Z,89.60
2017-08-13T21:06:33.439Z,89.60
2017-08-13T21:09:01.537Z,89.80
2017-08-13T21:11:29.610Z,89.90
2017-08-13T21:13:58.468Z,89.80
2017-08-13T21:16:26.513Z,89.50
2017-08-13T21:18:55.335Z,90.00
2017-08-13T21:21:23.411Z,90.00
2017-08-13T21:23:51.504Z,90.20
2017-08-13T21:26:19.607Z,90.30
2017-08-13T21:28:47.702Z,90.20
2017-08-13T21:31:15.769Z,90.10
2017-08-13T21:33:43.856Z,90.10
2017-08-13T21:36:11.941Z,89.90
2017-08-13T21:38:40.033Z,89.80
2017-08-13T21:41:08.106Z,90.00
2017-08-13T21:43:36.171Z,89.90
2017-08-13T21:46:04.247Z,90.00
2017-08-13T21:48:32.326Z,89.90
2017-08-13T21:51:00.434Z,90.10
2017-08-13T21:53:28.507Z,90.30
2017-08-13T21:55:56.579Z,90.00
2017-08-13T21:58:24.707Z,89.40
2017-08-13T22:00:52.770Z,89.40
2017-08-13T22:03:35.738Z,89.50
2017-08-13T22:06:03.836Z,90.10
2017-08-13T22:08:31.919Z,90.30
2017-08-13T22:10:59.987Z,90.20
2017-08-13T22:13:28.087Z,89.90
2017-08-13T22:15:56.141Z,89.60
2017-08-13T22:18:24.986Z,90.20
2017-08-13T22:20:53.059Z,90.10
2017-08-13T22:23:21.155Z,90.00
2017-08-13T22:25:49.226Z,89.60
2017-08-13T22:28:18.062Z,90.50
2017-08-13T22:30:46.161Z,90.00
2017-08-13T22:33:14.225Z,90.20
2017-08-13T22:35:42.308Z,90.10
2017-08-13T22:38:10.368Z,90.00
2017-08-13T22:40:38.437Z,90.20
2017-08-13T22:43:06.511Z,90.30
2017-08-13T22:45:34.585Z,90.30
2017-08-13T22:48:02.677Z,90.20
2017-08-13T22:50:30.761Z,90.30
2017-08-13T22:52:59.612Z,90.10
2017-08-13T22:55:27.671Z,89.90
2017-08-13T22:57:55.743Z,89.80
2017-08-13T23:00:23.822Z,89.70
2017-08-13T23:02:51.887Z,89.80
2017-08-13T23:05:19.992Z,90.10
2017-08-13T23:07:48.060Z,90.20
2017-08-13T23:10:16.143Z,90.20
2017-08-13T23:12:44.210Z,90.10
2017-08-13T23:15:12.332Z,90.10
2017-08-13T23:17:41.138Z,90.30
2017-08-13T23:20:09.222Z,90.30
2017-08-13T23:22:37.304Z,90.10
2017-08-13T23:25:05.367Z,89.80
2017-08-13T23:27:33.465Z,89.60
2017-08-13T23:30:02.304Z,89.10
2017-08-13T23:32:30.369Z,89.00
2017-08-13T23:34:58.443Z,88.90
2017-08-13T23:37:26.514Z,88.70
2017-08-13T23:39:54.574Z,89.00
2017-08-13T23:42:22.644Z,89.20
2017-08-13T23:44:50.738Z,89.30
2017-08-13T23:47:18.800Z,89.60
2017-08-13T23:49:46.878Z,89.20
2017-08-13T23:52:14.955Z,89.20
2017-08-13T23:54:43.024Z,88.90
2017-08-13T23:57:11.111Z,88.80
2017-08-13T23:59:39.156Z,88.20
